Time;durP1;ratioP1;P1;durP2;ratioP2;P2;SDS_P1;SDS_P2;PMS_P1;PMS_P2;Temp;Humidity;BMP_temperature;BMP_pressure;BME280_temperature;BME280_humidity;BME280_pressure;Samples;Min_cycle;Max_cycle;Signal;HPM_P1;HPM_P2
2022/12/31 00:00:39;;;;;;;1.40;0.70;;;15.60;99.90;;;;;;5073514;28;20166;-74
2022/12/31 00:03:06;;;;;;;1.40;0.83;;;15.60;99.90;;;;;;5073068;28;20203;-75
2022/12/31 00:05:32;;;;;;;1.30;0.67;;;15.70;99.90;;;;;;5073023;28;20444;-75
2022/12/31 00:07:58;;;;;;;1.00;0.50;;;15.70;99.90;;;;;;5073354;28;20393;-76
2022/12/31 00:10:24;;;;;;;1.20;0.80;;;15.70;99.90;;;;;;5073503;28;20787;-77
2022/12/31 00:12:49;;;;;;;1.20;0.80;;;15.60;99.90;;;;;;5073508;28;20182;-76
2022/12/31 00:15:15;;;;;;;2.10;0.77;;;15.50;99.90;;;;;;5073426;28;20190;-76
2022/12/31 00:17:41;;;;;;;1.10;0.70;;;15.50;99.90;;;;;;5055250;28;20260;-76
2022/12/31 00:20:07;;;;;;;1.50;0.80;;;15.50;99.90;;;;;;5073864;28;20232;-77
2022/12/31 00:22:33;;;;;;;1.30;0.70;;;15.50;99.90;;;;;;5055984;28;20603;-76
2022/12/31 00:24:58;;;;;;;1.00;0.50;;;15.40;99.90;;;;;;5056887;28;20460;-76
2022/12/31 00:27:24;;;;;;;2.90;0.87;;;15.40;99.90;;;;;;5054932;28;20274;-76
2022/12/31 00:29:50;;;;;;;1.00;0.57;;;15.40;99.90;;;;;;5054856;28;20639;-76
2022/12/31 00:32:15;;;;;;;1.03;0.60;;;15.50;99.90;;;;;;5072945;28;20220;-76
2022/12/31 00:34:41;;;;;;;1.00;0.60;;;15.40;99.90;;;;;;5072571;28;20174;-76
2022/12/31 00:37:06;;;;;;;1.57;0.60;;;15.30;99.90;;;;;;5073441;28;20721;-77
2022/12/31 00:39:32;;;;;;;1.10;0.60;;;15.40;99.90;;;;;;5072981;28;20723;-76
2022/12/31 00:41:57;;;;;;;1.20;0.60;;;15.30;99.90;;;;;;5055356;28;20578;-76
2022/12/31 00:44:23;;;;;;;1.10;0.60;;;15.40;99.90;;;;;;5072110;28;20182;-76
2022/12/31 00:46:50;;;;;;;1.23;0.57;;;15.40;99.90;;;;;;5073025;28;20194;-76
2022/12/31 00:49:35;;;;;;;1.00;0.60;;;15.20;99.90;;;;;;5073693;28;20193;-76
2022/12/31 00:52:28;;;;;;;1.00;0.60;;;15.30;99.90;;;;;;5073730;28;20411;-76
2022/12/31 00:55:03;;;;;;;1.00;0.60;;;15.20;99.90;;;;;;5071954;28;20448;-76
2022/12/31 00:57:31;;;;;;;1.30;0.90;;;15.20;99.90;;;;;;5042301;28;20439;-77
2022/12/31 00:59:57;;;;;;;1.30;0.60;;;15.20;99.90;;;;;;5072931;28;20405;-76
2022/12/31 01:02:22;;;;;;;1.00;0.60;;;15.30;99.90;;;;;;5072481;28;20397;-76
2022/12/31 01:04:48;;;;;;;1.30;0.60;;;15.20;99.90;;;;;;5072112;28;20170;-76
2022/12/31 01:07:13;;;;;;;1.00;0.50;;;15.20;99.90;;;;;;5054671;28;20197;-77
2022/12/31 01:09:41;;;;;;;1.77;0.60;;;15.30;99.90;;;;;;5072566;28;20166;-76
2022/12/31 01:12:06;;;;;;;1.30;0.60;;;15.30;99.90;;;;;;5038126;28;20189;-76
2022/12/31 01:14:34;;;;;;;1.00;0.50;;;15.20;99.90;;;;;;5054738;28;20846;-76
2022/12/31 01:16:59;;;;;;;1.00;0.60;;;15.30;99.90;;;;;;5055743;28;20216;-76
2022/12/31 01:19:27;;;;;;;1.43;0.67;;;15.30;99.90;;;;;;5055155;28;20974;-76
2022/12/31 01:21:54;;;;;;;1.00;0.60;;;15.30;99.90;;;;;;5072997;28;20201;-77
2022/12/31 01:24:19;;;;;;;1.07;0.57;;;15.40;99.90;;;;;;5071884;28;20428;-76
2022/12/31 01:26:45;;;;;;;1.10;0.60;;;15.40;99.90;;;;;;5072273;28;20463;-76
2022/12/31 01:29:12;;;;;;;2.80;2.10;;;15.50;99.90;;;;;;5072548;28;20171;-76
2022/12/31 01:31:38;;;;;;;1.00;0.50;;;15.50;99.90;;;;;;5054666;28;20418;-76
2022/12/31 01:34:05;;;;;;;1.00;0.50;;;15.60;99.90;;;;;;5072814;28;20416;-76
2022/12/31 01:36:33;;;;;;;1.10;0.60;;;15.60;99.90;;;;;;5054596;28;20440;-75
2022/12/31 01:39:01;;;;;;;1.00;0.60;;;15.70;99.90;;;;;;5071609;28;20408;-76
2022/12/31 01:41:39;;;;;;;1.10;0.60;;;15.80;99.90;;;;;;5071815;28;20415;-76
2022/12/31 01:44:11;;;;;;;1.00;0.50;;;15.80;99.90;;;;;;5071384;28;20423;-75
2022/12/31 01:46:38;;;;;;;1.10;0.60;;;15.90;99.90;;;;;;5071589;28;20456;-76
2022/12/31 01:49:09;;;;;;;1.00;0.50;;;15.90;99.90;;;;;;5071817;28;20405;-76
2022/12/31 01:51:36;;;;;;;1.00;0.60;;;15.90;99.90;;;;;;5072396;28;20392;-76
2022/12/31 01:54:05;;;;;;;1.00;0.50;;;16.00;99.90;;;;;;5071483;28;20426;-76
2022/12/31 01:56:31;;;;;;;1.03;0.53;;;16.00;99.90;;;;;;5070950;28;20526;-76
2022/12/31 01:58:57;;;;;;;1.60;0.70;;;16.00;99.90;;;;;;5071774;28;20898;-76
2022/12/31 02:01:34;;;;;;;1.00;0.50;;;16.00;99.90;;;;;;5053838;28;20774;-76
2022/12/31 02:04:05;;;;;;;1.10;0.50;;;16.00;99.90;;;;;;5072008;28;20454;-76
2022/12/31 02:06:49;;;;;;;1.00;0.50;;;16.00;99.90;;;;;;5071207;28;20543;-76
2022/12/31 02:09:15;;;;;;;1.10;0.60;;;15.90;99.90;;;;;;5053915;28;20431;-75
2022/12/31 02:11:40;;;;;;;1.00;0.50;;;15.90;99.90;;;;;;5071681;28;20424;-76
2022/12/31 02:14:17;;;;;;;1.00;0.50;;;15.90;99.90;;;;;;5054774;28;20179;-76
2022/12/31 02:17:17;;;;;;;1.50;0.60;;;15.90;99.90;;;;;;5053679;28;20436;-76
2022/12/31 02:19:54;;;;;;;1.00;0.50;;;15.90;99.90;;;;;;5053602;28;20507;-76
2022/12/31 02:22:38;;;;;;;1.00;0.50;;;16.00;99.90;;;;;;5071702;28;20436;-76
2022/12/31 02:25:19;;;;;;;1.00;0.60;;;16.10;99.90;;;;;;5071939;28;20529;-76
2022/12/31 02:27:51;;;;;;;1.00;0.50;;;16.10;99.90;;;;;;5051523;28;20409;-76
2022/12/31 02:30:20;;;;;;;1.00;0.60;;;16.10;99.90;;;;;;5051287;28;20405;-76
2022/12/31 02:33:07;;;;;;;1.10;0.60;;;16.10;99.90;;;;;;5051401;28;20405;-76
2022/12/31 02:35:48;;;;;;;1.10;0.60;;;16.20;99.90;;;;;;5058566;28;20450;-76
2022/12/31 02:38:30;;;;;;;1.10;0.53;;;16.30;99.90;;;;;;5075419;28;20407;-76
2022/12/31 02:40:56;;;;;;;1.00;0.50;;;16.30;99.90;;;;;;5074573;28;20773;-76
2022/12/31 02:43:23;;;;;;;1.00;0.50;;;16.40;99.90;;;;;;5059760;28;20785;-76
2022/12/31 02:46:15;;;;;;;1.00;0.60;;;16.50;99.90;;;;;;5076095;28;20452;-77
2022/12/31 02:49:12;;;;;;;1.50;0.60;;;16.60;99.90;;;;;;5075062;28;20849;-75
2022/12/31 02:51:41;;;;;;;1.40;0.60;;;16.60;99.90;;;;;;5075096;28;20432;-76
2022/12/31 02:54:18;;;;;;;1.10;0.50;;;16.70;99.90;;;;;;5075825;28;20889;-76
2022/12/31 02:57:04;;;;;;;1.10;0.60;;;16.70;99.90;;;;;;5074643;28;20438;-76
2022/12/31 03:02:39;;;;;;;1.07;0.60;;;16.90;99.90;;;;;;5075009;28;20407;-76
2022/12/31 03:05:07;;;;;;;1.10;0.60;;;16.90;99.90;;;;;;5074187;28;20478;-76
2022/12/31 03:07:32;;;;;;;1.10;0.50;;;16.90;99.90;;;;;;5074649;28;20497;-76
2022/12/31 03:10:00;;;;;;;1.37;0.70;;;17.00;99.90;;;;;;5057279;28;20416;-76
2022/12/31 03:12:47;;;;;;;1.60;0.60;;;17.00;99.90;;;;;;5074551;28;20182;-76
2022/12/31 03:15:23;;;;;;;1.30;0.60;;;17.10;99.90;;;;;;5074230;28;20420;-76
2022/12/31 03:18:01;;;;;;;1.00;0.50;;;17.10;99.90;;;;;;5036649;28;20421;-75
2022/12/31 03:23:27;;;;;;;1.10;0.60;;;17.10;99.90;;;;;;5054358;28;20436;-75
2022/12/31 03:25:55;;;;;;;1.20;0.60;;;17.10;99.90;;;;;;5058820;28;20547;-76
2022/12/31 03:28:23;;;;;;;1.03;0.50;;;17.10;99.90;;;;;;5074345;28;20483;-75
2022/12/31 03:30:56;;;;;;;1.00;0.50;;;17.00;99.90;;;;;;5073862;28;20432;-75
2022/12/31 03:33:23;;;;;;;1.03;0.50;;;17.10;99.90;;;;;;5074840;28;20404;-75
2022/12/31 03:35:49;;;;;;;1.00;0.50;;;17.10;99.90;;;;;;5073834;28;20479;-75
2022/12/31 03:38:16;;;;;;;1.10;0.50;;;17.00;99.90;;;;;;5056208;28;20817;-75
2022/12/31 03:40:45;;;;;;;1.07;0.50;;;17.00;99.90;;;;;;5074091;28;20401;-75
2022/12/31 03:43:11;;;;;;;2.50;0.80;;;17.00;99.90;;;;;;5074747;28;20420;-76
2022/12/31 03:45:38;;;;;;;1.00;0.50;;;17.00;99.90;;;;;;5073529;28;20817;-75
2022/12/31 03:48:05;;;;;;;1.20;0.60;;;17.00;99.90;;;;;;5073894;28;20423;-75
2022/12/31 03:50:31;;;;;;;1.10;0.60;;;16.90;99.90;;;;;;5073592;28;20425;-75
2022/12/31 03:52:58;;;;;;;1.20;0.57;;;16.90;99.90;;;;;;5056245;28;20419;-76
2022/12/31 03:55:24;;;;;;;1.10;0.50;;;16.90;99.90;;;;;;5056866;28;20448;-76
2022/12/31 03:57:50;;;;;;;2.50;0.60;;;16.90;99.90;;;;;;5056566;28;20794;-75
2022/12/31 04:00:18;;;;;;;1.03;0.50;;;16.90;99.90;;;;;;5073518;28;20174;-75
2022/12/31 04:02:45;;;;;;;1.87;0.60;;;16.90;99.90;;;;;;5073566;28;20167;-75
2022/12/31 04:05:11;;;;;;;1.00;0.50;;;16.90;99.90;;;;;;5073688;28;20437;-76
2022/12/31 04:07:37;;;;;;;1.00;0.50;;;16.90;99.90;;;;;;5035458;28;20428;-75
2022/12/31 04:10:06;;;;;;;1.10;0.60;;;16.90;99.90;;;;;;5053501;28;20398;-75
2022/12/31 04:12:32;;;;;;;1.10;0.50;;;16.90;99.90;;;;;;5053922;28;20190;-75
2022/12/31 04:14:59;;;;;;;1.07;0.53;;;16.80;99.90;;;;;;5053304;28;20532;-76
2022/12/31 04:17:25;;;;;;;1.10;0.60;;;16.90;99.90;;;;;;5057102;28;20881;-76
2022/12/31 04:19:50;;;;;;;1.10;0.50;;;16.80;99.90;;;;;;5073178;28;20257;-75
2022/12/31 04:22:16;;;;;;;1.10;0.50;;;16.80;99.90;;;;;;5073124;28;20198;-75
2022/12/31 04:24:42;;;;;;;1.10;0.60;;;16.90;99.90;;;;;;5054795;28;20404;-75
2022/12/31 04:27:09;;;;;;;1.00;0.50;;;16.90;99.90;;;;;;5074313;28;20201;-76
2022/12/31 04:29:35;;;;;;;1.03;0.50;;;16.90;99.90;;;;;;5073736;28;20193;-76
2022/12/31 04:32:01;;;;;;;1.43;0.60;;;16.90;99.90;;;;;;5073177;28;20470;-76
2022/12/31 04:34:26;;;;;;;1.10;0.60;;;16.90;99.90;;;;;;5073054;28;20400;-76
2022/12/31 04:36:52;;;;;;;1.10;0.60;;;16.90;99.90;;;;;;5055160;28;20194;-76
2022/12/31 04:39:17;;;;;;;1.20;0.80;;;16.90;99.90;;;;;;5072737;28;20208;-76
2022/12/31 04:41:43;;;;;;;1.10;0.50;;;17.00;99.90;;;;;;5072745;28;20163;-76
2022/12/31 04:44:08;;;;;;;1.20;0.70;;;17.00;99.90;;;;;;5072575;28;20202;-75
2022/12/31 04:46:34;;;;;;;1.20;0.70;;;17.00;99.90;;;;;;5072332;28;20327;-76
2022/12/31 04:49:00;;;;;;;1.10;0.60;;;17.10;99.90;;;;;;5072381;28;20177;-75
2022/12/31 04:51:27;;;;;;;1.03;0.57;;;17.20;99.90;;;;;;5072578;28;20177;-76
2022/12/31 04:53:53;;;;;;;1.10;0.60;;;17.20;99.90;;;;;;5072494;28;20404;-75
2022/12/31 04:56:19;;;;;;;1.13;0.63;;;17.30;99.90;;;;;;5072024;28;20424;-75
2022/12/31 04:58:45;;;;;;;2.07;0.60;;;17.30;99.90;;;;;;5072701;28;20476;-76
2022/12/31 05:01:13;;;;;;;1.10;0.50;;;17.30;99.90;;;;;;5073553;28;20404;-76
2022/12/31 05:03:39;;;;;;;1.00;0.60;;;17.40;99.90;;;;;;5072905;28;20162;-76
2022/12/31 05:06:08;;;;;;;1.50;0.60;;;17.30;99.90;;;;;;5054049;28;20480;-76
2022/12/31 05:08:34;;;;;;;1.50;0.67;;;17.40;99.90;;;;;;5054267;28;20412;-76
2022/12/31 05:10:59;;;;;;;1.10;0.60;;;17.40;99.90;;;;;;5072752;28;20490;-76
2022/12/31 05:13:25;;;;;;;5.43;0.80;;;17.40;99.90;;;;;;5072647;28;20631;-76
2022/12/31 05:15:51;;;;;;;1.40;0.70;;;17.40;99.90;;;;;;5072362;28;20193;-75
2022/12/31 05:18:17;;;;;;;1.50;0.70;;;17.40;99.90;;;;;;5055319;28;20420;-76
2022/12/31 05:20:42;;;;;;;1.53;0.70;;;17.40;99.90;;;;;;5074204;28;20177;-76
2022/12/31 05:23:08;;;;;;;2.13;0.80;;;17.40;99.90;;;;;;5056298;28;20994;-75
2022/12/31 05:25:33;;;;;;;2.13;0.60;;;17.50;99.90;;;;;;5073711;28;20194;-75
2022/12/31 05:27:59;;;;;;;1.20;0.60;;;17.40;99.90;;;;;;5073116;28;20217;-75
2022/12/31 05:30:25;;;;;;;1.10;0.60;;;17.50;99.90;;;;;;5055212;28;20400;-75
2022/12/31 05:32:51;;;;;;;1.53;0.70;;;17.50;99.90;;;;;;5055310;28;20171;-75
2022/12/31 05:35:17;;;;;;;1.70;0.70;;;17.40;99.90;;;;;;5053628;28;20428;-75
2022/12/31 05:37:42;;;;;;;1.13;0.63;;;17.40;99.90;;;;;;5053687;28;20415;-75
2022/12/31 05:40:09;;;;;;;1.90;0.90;;;17.40;99.90;;;;;;5072127;28;20169;-75
2022/12/31 05:42:34;;;;;;;1.50;0.70;;;17.40;99.90;;;;;;5072061;28;20169;-75
2022/12/31 05:45:03;;;;;;;1.37;0.60;;;17.50;99.90;;;;;;5071745;28;20416;-75
2022/12/31 05:47:29;;;;;;;1.10;0.60;;;17.50;99.90;;;;;;5071798;28;20213;-75
2022/12/31 05:49:54;;;;;;;1.10;0.60;;;17.40;99.90;;;;;;5072187;28;20922;-76
2022/12/31 05:52:20;;;;;;;1.30;0.70;;;17.40;99.90;;;;;;5073315;28;20220;-75
2022/12/31 05:54:46;;;;;;;1.37;0.70;;;17.40;99.90;;;;;;5055218;28;20173;-75
2022/12/31 05:57:12;;;;;;;1.10;0.63;;;17.40;99.90;;;;;;5073468;28;20545;-75
2022/12/31 05:59:37;;;;;;;4.60;1.10;;;17.40;99.90;;;;;;5073013;28;20178;-75
2022/12/31 06:02:03;;;;;;;2.33;0.70;;;17.40;99.90;;;;;;5073154;28;20190;-75
2022/12/31 06:04:29;;;;;;;1.00;0.60;;;17.40;99.90;;;;;;5072556;28;20181;-75
2022/12/31 06:06:54;;;;;;;1.93;0.80;;;17.30;99.90;;;;;;5072604;28;20209;-75
2022/12/31 06:09:20;;;;;;;1.10;0.60;;;17.30;99.90;;;;;;5075814;28;20170;-75
2022/12/31 06:11:46;;;;;;;2.27;0.90;;;17.40;99.90;;;;;;5077828;28;20182;-75
2022/12/31 06:14:12;;;;;;;1.77;1.00;;;17.30;99.90;;;;;;5077514;28;20166;-75
2022/12/31 06:16:39;;;;;;;2.20;1.67;;;17.40;99.90;;;;;;5077580;28;20226;-75
2022/12/31 06:19:05;;;;;;;2.13;0.70;;;17.30;99.90;;;;;;5077680;28;20424;-76
2022/12/31 06:21:30;;;;;;;1.47;0.70;;;17.40;99.90;;;;;;5078020;28;20458;-76
2022/12/31 06:23:57;;;;;;;1.17;0.67;;;17.40;99.90;;;;;;5077875;28;20449;-76
2022/12/31 06:26:23;;;;;;;3.50;0.73;;;17.50;99.90;;;;;;5060206;28;20217;-76
2022/12/31 06:28:49;;;;;;;1.20;0.60;;;17.40;99.90;;;;;;5077591;28;21121;-75
2022/12/31 06:31:14;;;;;;;1.30;0.77;;;17.50;99.90;;;;;;5078073;28;20167;-76
2022/12/31 06:33:41;;;;;;;1.50;0.90;;;17.50;99.90;;;;;;5077734;28;20162;-75
2022/12/31 06:36:11;;;;;;;1.37;0.87;;;17.60;99.90;;;;;;5078357;28;20186;-75
2022/12/31 06:38:38;;;;;;;1.57;0.70;;;17.70;99.90;;;;;;5078545;28;20420;-75
2022/12/31 06:41:05;;;;;;;1.20;0.80;;;17.60;99.90;;;;;;5079115;28;20504;-75
2022/12/31 06:43:30;;;;;;;1.10;0.60;;;17.70;99.90;;;;;;5078305;28;20469;-75
2022/12/31 06:45:59;;;;;;;1.47;0.90;;;17.70;99.90;;;;;;5078091;28;20459;-76
2022/12/31 06:48:25;;;;;;;4.07;1.97;;;17.70;99.90;;;;;;5078133;28;20174;-76
2022/12/31 06:50:51;;;;;;;2.90;1.40;;;17.70;99.90;;;;;;5078297;28;20469;-76
2022/12/31 06:53:16;;;;;;;2.50;0.93;;;17.70;99.90;;;;;;5078245;28;20227;-76
2022/12/31 06:55:42;;;;;;;1.83;0.90;;;17.70;99.90;;;;;;5078302;28;20554;-75
2022/12/31 06:58:12;;;;;;;1.30;0.70;;;17.70;99.90;;;;;;5060988;28;20794;-76
2022/12/31 07:00:45;;;;;;;2.60;0.97;;;17.70;99.90;;;;;;5078727;28;20594;-76
2022/12/31 07:03:29;;;;;;;5.90;1.17;;;17.70;99.90;;;;;;5078645;28;20408;-76
2022/12/31 07:06:08;;;;;;;1.33;0.70;;;17.70;99.90;;;;;;5061493;28;20482;-76
2022/12/31 07:08:58;;;;;;;1.20;0.60;;;17.70;99.90;;;;;;5079068;28;20535;-75
2022/12/31 07:11:59;;;;;;;1.10;0.70;;;17.70;99.90;;;;;;5062135;28;20497;-75
2022/12/31 07:14:47;;;;;;;1.67;0.80;;;17.70;99.90;;;;;;5037458;28;20462;-75
2022/12/31 07:17:39;;;;;;;1.70;0.80;;;17.60;99.90;;;;;;5079140;28;20400;-77
2022/12/31 07:20:13;;;;;;;1.90;1.00;;;17.70;99.90;;;;;;5057851;28;20425;-76
2022/12/31 07:22:39;;;;;;;1.80;1.00;;;17.70;99.90;;;;;;5075409;28;20454;-76
2022/12/31 07:25:06;;;;;;;1.67;1.20;;;17.80;99.90;;;;;;5074713;28;20420;-76
2022/12/31 07:27:52;;;;;;;2.17;0.67;;;17.80;99.90;;;;;;5074826;28;20491;-76
2022/12/31 07:30:49;;;;;;;2.43;0.70;;;17.80;99.90;;;;;;5057205;28;20417;-76
2022/12/31 07:33:29;;;;;;;1.30;0.90;;;17.90;99.90;;;;;;5074998;28;20408;-76
2022/12/31 07:36:21;;;;;;;2.17;0.80;;;17.80;99.90;;;;;;5056828;28;20835;-76
2022/12/31 07:38:55;;;;;;;1.10;0.60;;;17.80;99.90;;;;;;5074744;28;20420;-76
2022/12/31 07:41:55;;;;;;;1.20;0.60;;;17.80;99.90;;;;;;5074686;28;20457;-76
2022/12/31 07:44:55;;;;;;;1.40;0.70;;;17.90;99.90;;;;;;5056164;28;20512;-75
2022/12/31 07:47:26;;;;;;;1.83;1.00;;;17.80;99.90;;;;;;5010873;28;20464;-75
2022/12/31 07:49:52;;;;;;;2.70;1.00;;;17.90;99.90;;;;;;5056164;28;20478;-75
2022/12/31 07:52:18;;;;;;;2.17;0.80;;;17.90;99.90;;;;;;5074227;28;20925;-75
2022/12/31 07:54:44;;;;;;;1.83;1.00;;;17.90;99.90;;;;;;5073964;28;20401;-75
2022/12/31 07:57:14;;;;;;;1.83;1.00;;;17.80;99.90;;;;;;5055983;28;20765;-75
2022/12/31 08:00:02;;;;;;;1.73;0.90;;;17.90;99.90;;;;;;5073827;28;20186;-75
2022/12/31 08:03:01;;;;;;;1.57;0.70;;;17.90;99.90;;;;;;5073408;28;20773;-75
2022/12/31 08:05:26;;;;;;;2.40;1.13;;;17.90;99.90;;;;;;5055358;28;20589;-75
2022/12/31 08:07:54;;;;;;;1.40;0.80;;;17.90;99.90;;;;;;5055904;28;20515;-76
2022/12/31 08:10:27;;;;;;;2.53;0.70;;;17.80;99.90;;;;;;5073278;28;20170;-75
2022/12/31 08:13:00;;;;;;;1.20;0.60;;;17.80;99.90;;;;;;5055746;28;20466;-75
2022/12/31 08:15:27;;;;;;;1.93;1.23;;;17.90;99.90;;;;;;5055625;28;20432;-75
2022/12/31 08:17:53;;;;;;;1.10;0.70;;;17.90;99.90;;;;;;5073600;28;20404;-75
2022/12/31 08:20:19;;;;;;;1.40;0.70;;;17.90;99.90;;;;;;5073407;28;20409;-76
2022/12/31 08:22:50;;;;;;;2.70;1.27;;;17.90;99.90;;;;;;5073846;28;20914;-76
2022/12/31 08:25:34;;;;;;;1.53;0.70;;;17.90;99.90;;;;;;5073459;28;20217;-76
2022/12/31 08:28:49;;;;;;;1.30;1.10;;;17.90;99.90;;;;;;5073577;28;20404;-76
2022/12/31 08:31:28;;;;;;;1.10;0.70;;;18.00;99.90;;;;;;5064777;28;20416;-76
2022/12/31 08:34:02;;;;;;;2.37;1.10;;;17.90;99.90;;;;;;5073378;28;20925;-76
2022/12/31 08:36:55;;;;;;;1.53;0.83;;;17.90;99.90;;;;;;5073113;28;20417;-76
2022/12/31 08:39:27;;;;;;;1.30;0.80;;;18.00;99.90;;;;;;5073422;28;20424;-75
2022/12/31 08:41:55;;;;;;;1.53;0.90;;;18.00;99.90;;;;;;5055458;28;21021;-75
2022/12/31 08:44:46;;;;;;;2.40;0.70;;;18.10;99.90;;;;;;5073136;28;20491;-75
2022/12/31 08:47:28;;;;;;;2.17;0.90;;;18.10;99.90;;;;;;5055476;28;20653;-75
2022/12/31 08:49:54;;;;;;;1.63;0.87;;;18.20;99.90;;;;;;5055763;28;20499;-75
2022/12/31 08:52:23;;;;;;;1.70;0.93;;;18.20;99.90;;;;;;5073025;28;20409;-75
2022/12/31 08:54:49;;;;;;;9.03;0.90;;;18.20;99.90;;;;;;5072868;28;20442;-76
2022/12/31 08:57:33;;;;;;;7.03;1.17;;;18.20;99.90;;;;;;5055138;28;20420;-76
2022/12/31 08:59:59;;;;;;;1.10;0.70;;;18.30;99.90;;;;;;5073271;28;20166;-76
2022/12/31 09:02:43;;;;;;;1.57;0.80;;;18.30;99.90;;;;;;5073204;28;20431;-76
2022/12/31 09:05:20;;;;;;;1.33;0.67;;;18.30;99.90;;;;;;5054763;28;20602;-76
2022/12/31 09:08:05;;;;;;;2.83;1.00;;;18.40;99.90;;;;;;5073459;28;20774;-76
2022/12/31 09:10:36;;;;;;;3.70;0.93;;;18.30;99.90;;;;;;5073200;28;20782;-76
2022/12/31 09:13:33;;;;;;;3.00;0.70;;;18.30;99.90;;;;;;5048078;28;20934;-76
2022/12/31 09:16:07;;;;;;;3.90;0.93;;;18.30;99.90;;;;;;5063146;28;20432;-76
2022/12/31 09:18:38;;;;;;;1.43;0.90;;;18.30;99.90;;;;;;5063201;28;20409;-76
2022/12/31 09:21:04;;;;;;;2.90;0.93;;;18.40;99.90;;;;;;5072649;28;20431;-76
2022/12/31 09:23:30;;;;;;;1.40;0.90;;;18.40;99.90;;;;;;5072931;28;20416;-76
2022/12/31 09:25:58;;;;;;;3.40;1.10;;;18.50;99.90;;;;;;5072370;28;20242;-76
2022/12/31 09:28:39;;;;;;;1.63;0.97;;;18.50;99.90;;;;;;5072626;28;20257;-76
2022/12/31 09:31:22;;;;;;;1.20;0.70;;;18.60;99.90;;;;;;5069475;28;20444;-76
2022/12/31 09:33:56;;;;;;;1.40;0.70;;;18.70;99.90;;;;;;5050753;28;20778;-76
2022/12/31 09:36:37;;;;;;;2.97;0.80;;;18.70;99.90;;;;;;5066182;28;20432;-76
2022/12/31 09:39:16;;;;;;;1.77;0.93;;;18.70;99.90;;;;;;5065876;28;20796;-76
2022/12/31 09:42:36;;;;;;;4.23;1.10;;;18.70;99.90;;;;;;5048146;28;20431;-76
2022/12/31 09:45:28;;;;;;;1.10;0.77;;;18.80;99.90;;;;;;4972592;28;20531;-76
2022/12/31 09:47:56;;;;;;;2.00;0.80;;;18.80;99.90;;;;;;5072907;28;20503;-76
2022/12/31 09:50:36;;;;;;;1.50;1.00;;;18.70;99.90;;;;;;5072353;28;20447;-76
2022/12/31 09:53:07;;;;;;;3.77;1.17;;;18.70;99.90;;;;;;5072288;28;20434;-76
2022/12/31 09:55:44;;;;;;;2.00;0.80;;;18.70;99.90;;;;;;5071777;28;20432;-75
2022/12/31 09:58:50;;;;;;;1.20;0.60;;;18.60;99.90;;;;;;5071566;28;20413;-75
2022/12/31 10:01:42;;;;;;;2.20;1.10;;;18.60;99.90;;;;;;5072125;28;20495;-75
2022/12/31 10:04:37;;;;;;;2.80;1.00;;;18.60;99.90;;;;;;5072674;28;20405;-75
2022/12/31 10:07:23;;;;;;;1.87;0.90;;;18.60;99.90;;;;;;5058684;28;20482;-76
2022/12/31 10:10:16;;;;;;;1.73;0.70;;;18.60;99.90;;;;;;5072460;28;20423;-76
2022/12/31 10:13:02;;;;;;;1.87;1.10;;;18.60;99.90;;;;;;5054360;28;20478;-76
2022/12/31 10:15:31;;;;;;;2.00;0.80;;;18.60;99.90;;;;;;5053827;28;20455;-76
2022/12/31 10:18:23;;;;;;;4.23;1.40;;;18.70;99.90;;;;;;5072368;28;20976;-74
2022/12/31 10:20:54;;;;;;;3.60;1.40;;;18.70;99.90;;;;;;5054302;28;20408;-76
2022/12/31 10:23:25;;;;;;;1.40;0.83;;;18.80;99.90;;;;;;5072315;28;20421;-76
2022/12/31 10:26:09;;;;;;;2.30;0.90;;;18.90;99.90;;;;;;5053757;28;20969;-76
2022/12/31 10:28:57;;;;;;;1.67;0.80;;;18.80;99.90;;;;;;5072046;28;20404;-76
2022/12/31 10:31:31;;;;;;;1.37;0.70;;;19.00;99.90;;;;;;5072798;28;20407;-76
2022/12/31 10:34:33;;;;;;;3.50;0.90;;;19.00;99.90;;;;;;5072535;28;20764;-76
2022/12/31 10:37:22;;;;;;;2.60;1.00;;;19.00;99.90;;;;;;5058006;28;20457;-76
2022/12/31 10:40:09;;;;;;;4.27;1.13;;;19.10;99.90;;;;;;5072725;28;20411;-76
2022/12/31 10:43:02;;;;;;;3.40;0.90;;;19.00;99.90;;;;;;5071775;28;20443;-76
2022/12/31 10:46:03;;;;;;;2.90;0.90;;;19.10;99.90;;;;;;5071941;28;20432;-76
2022/12/31 10:48:47;;;;;;;2.43;0.97;;;19.10;99.90;;;;;;5073104;28;20510;-76
2022/12/31 10:51:34;;;;;;;8.60;1.30;;;19.10;99.90;;;;;;5073570;28;20676;-76
2022/12/31 10:54:46;;;;;;;1.93;0.90;;;19.20;99.90;;;;;;5056039;28;20917;-76
2022/12/31 10:57:49;;;;;;;1.60;1.03;;;19.20;99.90;;;;;;4959578;28;20435;-76
2022/12/31 11:00:20;;;;;;;3.37;1.30;;;19.10;99.90;;;;;;5043360;28;20515;-76
2022/12/31 11:03:29;;;;;;;1.97;0.90;;;19.20;99.90;;;;;;5058445;28;20420;-76
2022/12/31 11:06:22;;;;;;;2.70;0.80;;;19.10;99.90;;;;;;5075762;28;20539;-77
2022/12/31 11:08:53;;;;;;;1.10;0.60;;;19.10;99.90;;;;;;5058233;28;20458;-76
2022/12/31 11:11:46;;;;;;;1.33;0.80;;;19.00;99.90;;;;;;5058193;28;20443;-74
2022/12/31 11:14:54;;;;;;;1.80;0.70;;;19.00;99.90;;;;;;5075866;28;20408;-74
2022/12/31 11:17:25;;;;;;;1.20;0.70;;;19.10;99.90;;;;;;5075489;28;20401;-74
2022/12/31 11:20:24;;;;;;;2.23;0.83;;;19.10;99.90;;;;;;5058230;28;20443;-76
2022/12/31 11:23:17;;;;;;;1.50;0.90;;;19.10;99.90;;;;;;5055812;28;20416;-76
2022/12/31 11:25:48;;;;;;;1.60;0.83;;;19.30;99.90;;;;;;5074592;28;20459;-76
2022/12/31 11:28:49;;;;;;;2.20;1.07;;;19.50;99.90;;;;;;5056288;28;20459;-76
2022/12/31 11:31:46;;;;;;;1.93;1.03;;;19.50;99.90;;;;;;5073946;28;20436;-76
2022/12/31 11:34:36;;;;;;;2.57;1.00;;;19.50;99.90;;;;;;4984579;28;20558;-76
2022/12/31 11:37:30;;;;;;;1.90;1.10;;;19.70;99.90;;;;;;5074187;28;20412;-76
2022/12/31 11:40:20;;;;;;;2.20;1.07;;;19.60;99.90;;;;;;5074102;28;20905;-76
2022/12/31 11:43:09;;;;;;;2.07;1.00;;;19.50;99.90;;;;;;5058205;28;20417;-76
2022/12/31 11:46:12;;;;;;;2.13;1.03;;;19.40;99.90;;;;;;5055566;28;20452;-76
2022/12/31 11:48:53;;;;;;;1.83;1.00;;;19.20;99.90;;;;;;5074291;28;20407;-76
2022/12/31 11:51:35;;;;;;;1.50;1.10;;;19.10;99.90;;;;;;5073998;28;20499;-76
2022/12/31 11:54:23;;;;;;;2.70;0.80;;;19.10;99.90;;;;;;5074004;28;20423;-76
2022/12/31 11:57:11;;;;;;;3.83;1.00;;;19.00;99.90;;;;;;5071246;28;20531;-76
2022/12/31 11:59:36;;;;;;;2.00;0.97;;;18.90;99.90;;;;;;5056262;28;20423;-76
2022/12/31 12:02:20;;;;;;;2.90;0.90;;;18.90;99.90;;;;;;5074089;28;20420;-76
2022/12/31 12:04:49;;;;;;;1.97;0.80;;;18.90;99.90;;;;;;5040259;28;20539;-75
2022/12/31 12:07:16;;;;;;;1.40;0.80;;;18.90;99.90;;;;;;5072224;28;20455;-78
2022/12/31 12:09:43;;;;;;;1.73;1.07;;;18.90;99.90;;;;;;5073212;28;20909;-76
2022/12/31 12:12:09;;;;;;;1.57;1.00;;;18.80;99.90;;;;;;5073039;28;20428;-76
2022/12/31 12:14:36;;;;;;;5.10;1.10;;;18.80;99.90;;;;;;5054828;28;20477;-76
2022/12/31 12:17:05;;;;;;;2.47;0.90;;;18.80;99.90;;;;;;5073061;28;20577;-76
2022/12/31 12:19:32;;;;;;;2.17;1.27;;;18.80;99.90;;;;;;5072477;28;20913;-78
2022/12/31 12:22:07;;;;;;;1.80;0.90;;;18.90;99.90;;;;;;5072921;28;20488;-76
2022/12/31 12:24:33;;;;;;;2.70;1.13;;;18.90;99.90;;;;;;5072622;28;20400;-76
2022/12/31 12:26:58;;;;;;;1.70;0.90;;;19.00;99.90;;;;;;5072643;28;20464;-76
2022/12/31 12:29:34;;;;;;;4.70;1.27;;;19.00;99.90;;;;;;5072622;28;20201;-76
2022/12/31 12:32:17;;;;;;;2.07;0.90;;;19.00;99.90;;;;;;5072684;28;20212;-75
2022/12/31 12:34:43;;;;;;;1.20;0.80;;;19.10;99.90;;;;;;5072479;28;20412;-76
2022/12/31 12:37:35;;;;;;;1.73;0.70;;;19.10;99.90;;;;;;5072578;28;20413;-75
2022/12/31 12:40:08;;;;;;;1.60;0.90;;;19.10;99.90;;;;;;5067862;28;20190;-76
2022/12/31 12:42:34;;;;;;;5.67;1.30;;;19.10;99.90;;;;;;5072563;28;20417;-75
2022/12/31 12:45:09;;;;;;;2.30;1.47;;;19.10;99.90;;;;;;5072099;28;20428;-76
2022/12/31 12:47:35;;;;;;;1.80;0.90;;;19.10;99.90;;;;;;5072366;28;20827;-76
2022/12/31 12:50:02;;;;;;;1.40;0.90;;;19.10;99.90;;;;;;5072403;28;20424;-76
2022/12/31 12:52:27;;;;;;;1.87;1.13;;;19.10;99.90;;;;;;5072592;28;20457;-76
2022/12/31 12:55:13;;;;;;;1.80;0.80;;;19.10;99.90;;;;;;5054190;28;20514;-76
2022/12/31 12:58:05;;;;;;;1.50;0.90;;;19.00;99.90;;;;;;5071597;28;20197;-76
2022/12/31 13:00:55;;;;;;;2.53;1.07;;;19.00;99.90;;;;;;5054353;28;20837;-76
2022/12/31 13:03:48;;;;;;;4.43;1.43;;;18.90;99.90;;;;;;5054534;28;20412;-76
2022/12/31 13:06:44;;;;;;;2.73;1.13;;;18.90;99.90;;;;;;5072038;28;20466;-76
2022/12/31 13:09:36;;;;;;;1.60;0.90;;;18.90;99.90;;;;;;5072081;28;20549;-76
2022/12/31 13:12:37;;;;;;;1.93;1.07;;;18.70;99.90;;;;;;5038979;28;20481;-76
2022/12/31 13:15:12;;;;;;;2.57;1.20;;;18.70;99.90;;;;;;5052117;28;20432;-76
2022/12/31 13:17:55;;;;;;;2.40;0.90;;;18.60;99.90;;;;;;5033975;28;20556;-76
2022/12/31 13:20:27;;;;;;;2.20;1.03;;;18.60;99.90;;;;;;5041056;28;20439;-76
2022/12/31 13:23:19;;;;;;;1.90;1.23;;;18.40;99.90;;;;;;5072908;28;20401;-76
2022/12/31 13:25:51;;;;;;;6.03;1.10;;;18.40;99.90;;;;;;5054818;28;20518;-76
2022/12/31 13:28:18;;;;;;;6.50;1.47;;;18.20;99.90;;;;;;5054363;28;20420;-76
2022/12/31 13:30:47;;;;;;;3.20;1.03;;;18.20;99.90;;;;;;5071705;28;20416;-76